createdAt,value
2018-11-29T00:00:06.702Z,22.35
2018-11-29T00:00:38.301Z,22.35
2018-11-29T00:01:09.897Z,22.35
2018-11-29T00:01:41.550Z,22.36
2018-11-29T00:02:13.157Z,22.39
2018-11-29T00:02:44.777Z,22.40
2018-11-29T00:03:16.374Z,22.39
2018-11-29T00:03:47.988Z,22.40
2018-11-29T00:04:19.575Z,22.46
2018-11-29T00:04:51.171Z,22.46
2018-11-29T00:05:22.784Z,22.44
2018-11-29T00:05:54.578Z,22.42
2018-11-29T00:06:26.164Z,22.39
2018-11-29T00:06:57.754Z,22.38
2018-11-29T00:07:29.358Z,22.37
2018-11-29T00:08:00.953Z,22.38
2018-11-29T00:08:32.550Z,22.37
2018-11-29T00:09:04.142Z,22.37
2018-11-29T00:09:35.733Z,22.35
2018-11-29T00:10:07.343Z,22.34
2018-11-29T00:10:38.970Z,22.33
2018-11-29T00:11:10.575Z,22.36
2018-11-29T00:11:42.152Z,22.38
2018-11-29T00:12:13.761Z,22.39
2018-11-29T00:12:45.362Z,22.40
2018-11-29T00:13:16.968Z,22.42
2018-11-29T00:13:48.568Z,22.44
2018-11-29T00:14:20.158Z,22.47
2018-11-29T00:14:51.750Z,22.47
2018-11-29T00:15:23.355Z,22.49
2018-11-29T00:15:54.963Z,22.50
2018-11-29T00:16:26.571Z,22.51
2018-11-29T00:16:58.191Z,22.51
2018-11-29T00:17:29.794Z,22.51
2018-11-29T00:18:01.400Z,22.52
2018-11-29T00:18:32.995Z,22.51
2018-11-29T00:19:04.585Z,22.52
2018-11-29T00:19:36.177Z,22.56
2018-11-29T00:20:07.792Z,22.56
2018-11-29T00:20:39.423Z,22.52
2018-11-29T00:21:11.023Z,21.15
2018-11-29T00:21:42.615Z,19.55
2018-11-29T00:22:14.224Z,18.31
2018-11-29T00:22:45.821Z,17.56
2018-11-29T00:23:17.439Z,16.93
2018-11-29T00:23:49.036Z,14.91
2018-11-29T00:24:20.622Z,17.65
2018-11-29T00:24:52.214Z,18.31
2018-11-29T00:25:23.809Z,18.91
2018-11-29T00:25:55.426Z,19.28
2018-11-29T00:26:27.032Z,19.60
2018-11-29T00:26:58.640Z,19.87
2018-11-29T00:27:30.238Z,20.04
2018-11-29T00:28:01.845Z,20.21
2018-11-29T00:28:33.449Z,20.37
2018-11-29T00:29:05.049Z,20.50
2018-11-29T00:29:36.656Z,20.61
2018-11-29T00:30:08.271Z,20.70
2018-11-29T00:30:39.927Z,20.76
2018-11-29T00:31:11.536Z,20.83
2018-11-29T00:31:43.129Z,20.86
2018-11-29T00:32:14.739Z,20.91
2018-11-29T00:32:46.347Z,20.81
2018-11-29T00:33:17.946Z,20.93
2018-11-29T00:33:49.542Z,20.98
2018-11-29T00:34:21.134Z,21.00
2018-11-29T00:34:52.730Z,21.01
2018-11-29T00:35:24.382Z,21.04
2018-11-29T00:35:56.012Z,21.04
2018-11-29T00:36:27.626Z,21.06
2018-11-29T00:36:59.232Z,21.08
2018-11-29T00:37:30.826Z,21.10
2018-11-29T00:38:02.438Z,21.12
2018-11-29T00:38:34.027Z,21.13
2018-11-29T00:39:05.608Z,21.15
2018-11-29T00:39:37.216Z,21.15
2018-11-29T00:40:08.814Z,21.15
2018-11-29T00:40:40.415Z,21.18
2018-11-29T00:41:12.045Z,21.19
2018-11-29T00:41:43.649Z,21.20
2018-11-29T00:42:15.265Z,21.21
2018-11-29T00:42:46.861Z,21.22
2018-11-29T00:43:18.467Z,21.25
2018-11-29T00:43:50.058Z,21.26
2018-11-29T00:44:21.654Z,21.27
2018-11-29T00:44:53.245Z,21.28
2018-11-29T00:45:24.851Z,21.30
2018-11-29T00:45:56.480Z,21.31
2018-11-29T00:46:28.074Z,21.33
2018-11-29T00:46:59.673Z,21.33
2018-11-29T00:47:31.275Z,21.35
2018-11-29T00:48:02.900Z,21.36
2018-11-29T00:48:34.494Z,21.38
2018-11-29T00:49:06.076Z,21.39
2018-11-29T00:49:37.667Z,21.41
2018-11-29T00:50:09.267Z,21.46
2018-11-29T00:50:40.890Z,21.47
2018-11-29T00:51:12.506Z,21.48
2018-11-29T00:51:44.088Z,21.51
2018-11-29T00:52:15.672Z,21.52
2018-11-29T00:52:47.247Z,21.54
2018-11-29T00:53:18.856Z,21.55
2018-11-29T00:53:50.464Z,21.57
2018-11-29T00:54:22.085Z,21.60
2018-11-29T00:54:53.691Z,21.62
2018-11-29T00:55:25.307Z,21.64
2018-11-29T00:55:56.902Z,21.66
2018-11-29T00:56:28.519Z,21.69
2018-11-29T00:57:00.132Z,21.72
2018-11-29T00:57:31.726Z,21.73
2018-11-29T00:58:03.323Z,21.78
2018-11-29T00:58:34.959Z,21.81
2018-11-29T00:59:06.565Z,21.83
2018-11-29T00:59:38.166Z,21.87
2018-11-29T01:00:09.766Z,21.89
2018-11-29T01:00:41.371Z,21.91
2018-11-29T01:01:12.997Z,21.92
2018-11-29T01:01:44.585Z,21.95
2018-11-29T01:02:16.164Z,21.99
2018-11-29T01:02:47.774Z,22.02
2018-11-29T01:03:19.398Z,22.04
2018-11-29T01:03:51.416Z,22.08
2018-11-29T01:04:23.006Z,22.10
2018-11-29T01:04:54.599Z,22.10
2018-11-29T01:05:26.182Z,22.12
2018-11-29T01:05:57.788Z,22.14
2018-11-29T01:06:29.460Z,22.16
2018-11-29T01:07:01.058Z,22.15
2018-11-29T01:07:32.658Z,22.16
2018-11-29T01:08:04.277Z,22.15
2018-11-29T01:08:35.888Z,22.14
2018-11-29T01:09:07.491Z,22.13
2018-11-29T01:09:39.097Z,22.13
2018-11-29T01:10:10.693Z,22.11
2018-11-29T01:10:42.271Z,22.10
2018-11-29T01:11:13.903Z,22.10
2018-11-29T01:11:45.508Z,22.09
2018-11-29T01:12:17.105Z,22.08
2018-11-29T01:12:48.702Z,22.07
2018-11-29T01:13:20.312Z,22.06
2018-11-29T01:13:51.905Z,22.06
2018-11-29T01:14:23.491Z,21.93
2018-11-29T01:14:55.086Z,22.05
2018-11-29T01:15:26.681Z,22.04
2018-11-29T01:15:58.264Z,22.01
2018-11-29T01:16:29.881Z,22.00
2018-11-29T01:17:01.478Z,21.99
2018-11-29T01:17:33.071Z,21.98
2018-11-29T01:18:04.666Z,21.96
2018-11-29T01:18:36.261Z,21.95
2018-11-29T01:19:07.863Z,21.94
2018-11-29T01:19:39.462Z,21.92
2018-11-29T01:20:11.068Z,21.90
2018-11-29T01:20:42.661Z,21.89
2018-11-29T01:21:14.268Z,21.85
2018-11-29T01:21:45.886Z,21.83
2018-11-29T01:22:17.488Z,21.82
2018-11-29T01:22:49.088Z,21.82
2018-11-29T01:23:20.686Z,21.80
2018-11-29T01:23:52.289Z,21.77
2018-11-29T01:24:23.886Z,21.78
2018-11-29T01:24:55.492Z,21.76
2018-11-29T01:25:27.104Z,21.74
2018-11-29T01:25:58.701Z,21.73
2018-11-29T01:26:30.331Z,21.70
2018-11-29T01:27:01.943Z,21.70
2018-11-29T01:27:33.538Z,21.68
2018-11-29T01:28:05.149Z,21.68
2018-11-29T01:28:36.756Z,21.67
2018-11-29T01:29:08.354Z,21.65
2018-11-29T01:29:40.575Z,21.64
2018-11-29T01:30:12.184Z,21.62
2018-11-29T01:30:43.782Z,21.60
2018-11-29T01:31:15.392Z,21.59
2018-11-29T01:31:47.028Z,21.57
2018-11-29T01:32:18.634Z,21.55
2018-11-29T01:32:50.239Z,21.53
2018-11-29T01:33:21.851Z,21.51
2018-11-29T01:33:53.451Z,21.50
2018-11-29T01:34:25.042Z,21.48
2018-11-29T01:34:56.655Z,21.44
2018-11-29T01:35:28.268Z,21.41
2018-11-29T01:35:59.866Z,21.40
2018-11-29T01:36:31.491Z,21.37
2018-11-29T01:37:03.101Z,21.36
2018-11-29T01:37:34.701Z,21.37
2018-11-29T01:38:06.293Z,21.39
2018-11-29T01:38:37.898Z,21.40
2018-11-29T01:39:09.509Z,21.41
2018-11-29T01:39:41.105Z,21.43
2018-11-29T01:40:12.698Z,21.45
2018-11-29T01:40:44.280Z,21.43
2018-11-29T01:41:15.878Z,21.44
2018-11-29T01:41:47.513Z,21.41
2018-11-29T01:42:19.096Z,21.42
2018-11-29T01:42:50.704Z,21.41
2018-11-29T01:43:22.312Z,21.39
2018-11-29T01:43:53.905Z,21.37
2018-11-29T01:44:25.515Z,21.32
2018-11-29T01:44:57.100Z,21.32
2018-11-29T01:45:28.715Z,21.31
2018-11-29T01:46:00.334Z,21.29
2018-11-29T01:46:31.955Z,21.28
2018-11-29T01:47:03.569Z,21.25
2018-11-29T01:47:35.162Z,21.23
2018-11-29T01:48:06.761Z,21.21
2018-11-29T01:48:38.362Z,21.20
2018-11-29T01:49:09.953Z,21.18
2018-11-29T01:49:41.550Z,21.16
2018-11-29T01:50:13.150Z,21.16
2018-11-29T01:50:44.756Z,21.14
2018-11-29T01:51:16.350Z,21.13
2018-11-29T01:51:47.988Z,21.11
2018-11-29T01:52:19.584Z,21.11
2018-11-29T01:52:51.178Z,21.10
2018-11-29T01:53:22.756Z,21.10
2018-11-29T01:53:54.364Z,21.10
2018-11-29T01:54:25.962Z,21.08
2018-11-29T01:54:57.547Z,21.08
2018-11-29T01:55:29.141Z,21.07
2018-11-29T01:56:00.720Z,21.08
2018-11-29T01:56:32.341Z,21.09
2018-11-29T01:57:03.939Z,21.09
2018-11-29T01:57:35.516Z,21.08
2018-11-29T01:58:07.119Z,21.10
2018-11-29T01:58:38.719Z,21.10
2018-11-29T01:59:10.310Z,21.08
2018-11-29T01:59:41.906Z,21.09
2018-11-29T02:00:13.528Z,21.09
2018-11-29T02:00:45.126Z,21.09
2018-11-29T02:01:16.732Z,21.08
2018-11-29T02:01:48.364Z,21.09
2018-11-29T02:02:19.976Z,21.08
2018-11-29T02:02:51.584Z,21.09
2018-11-29T02:03:23.188Z,21.09
2018-11-29T02:03:54.797Z,21.09
2018-11-29T02:04:26.398Z,21.10
2018-11-29T02:04:57.997Z,21.11
2018-11-29T02:05:29.590Z,21.12
2018-11-29T02:06:01.192Z,21.13
2018-11-29T02:06:32.814Z,21.15
2018-11-29T02:07:04.420Z,21.16
2018-11-29T02:07:36.017Z,21.17
2018-11-29T02:08:07.622Z,21.20
2018-11-29T02:08:39.217Z,21.21
2018-11-29T02:09:10.814Z,21.23
2018-11-29T02:09:42.406Z,21.25
2018-11-29T02:10:14.001Z,21.27
2018-11-29T02:10:45.593Z,21.28
2018-11-29T02:11:17.186Z,21.30
2018-11-29T02:11:48.811Z,21.32
2018-11-29T02:12:20.424Z,21.35
2018-11-29T02:12:52.170Z,21.36
2018-11-29T02:13:23.766Z,21.37
2018-11-29T02:13:55.376Z,21.37
2018-11-29T02:14:26.974Z,21.39
2018-11-29T02:14:58.565Z,21.39
2018-11-29T02:15:30.177Z,21.41
2018-11-29T02:16:01.795Z,21.43
2018-11-29T02:16:33.415Z,21.43
2018-11-29T02:17:05.010Z,21.45
2018-11-29T02:17:36.593Z,21.47
2018-11-29T02:18:08.176Z,21.47
2018-11-29T02:18:39.784Z,21.47
2018-11-29T02:19:11.378Z,21.49
2018-11-29T02:19:42.955Z,21.49
2018-11-29T02:20:14.536Z,21.51
2018-11-29T02:20:46.140Z,21.51
2018-11-29T02:21:17.723Z,21.52
2018-11-29T02:21:49.355Z,21.52
2018-11-29T02:22:20.941Z,21.54
2018-11-29T02:22:52.548Z,21.56
2018-11-29T02:23:24.142Z,21.58
2018-11-29T02:23:55.752Z,21.61
2018-11-29T02:24:27.350Z,21.61
2018-11-29T02:24:58.951Z,21.63
2018-11-29T02:25:30.556Z,21.65
2018-11-29T02:26:02.164Z,21.45
2018-11-29T02:26:33.780Z,21.67
2018-11-29T02:27:05.378Z,21.68
2018-11-29T02:27:36.988Z,21.71
2018-11-29T02:28:08.596Z,21.72
2018-11-29T02:28:40.201Z,21.74
2018-11-29T02:29:11.816Z,21.77
2018-11-29T02:29:43.688Z,21.80
2018-11-29T02:30:15.311Z,21.81
2018-11-29T02:30:46.920Z,21.83
2018-11-29T02:31:18.504Z,21.85
2018-11-29T02:31:50.126Z,21.87
2018-11-29T02:32:21.738Z,21.89
2018-11-29T02:32:53.343Z,21.90
2018-11-29T02:33:24.944Z,21.89
2018-11-29T02:33:56.542Z,21.92
2018-11-29T02:34:28.138Z,21.92
2018-11-29T02:34:59.720Z,21.92
2018-11-29T02:35:31.325Z,21.92
2018-11-29T02:36:02.928Z,21.94
2018-11-29T02:36:34.547Z,21.96
2018-11-29T02:37:06.142Z,21.95
2018-11-29T02:37:37.747Z,21.94
2018-11-29T02:38:09.348Z,21.94
2018-11-29T02:38:40.956Z,21.96
2018-11-29T02:39:12.568Z,21.94
2018-11-29T02:39:44.171Z,21.95
2018-11-29T02:40:15.766Z,21.95
2018-11-29T02:40:47.372Z,21.94
2018-11-29T02:41:18.976Z,21.93
2018-11-29T02:41:50.609Z,21.94
2018-11-29T02:42:22.207Z,21.92
2018-11-29T02:42:53.803Z,21.91
2018-11-29T02:43:25.404Z,21.91
2018-11-29T02:43:57.008Z,21.90
2018-11-29T02:44:28.608Z,21.89
2018-11-29T02:45:00.202Z,21.88
2018-11-29T02:45:31.794Z,21.48
2018-11-29T02:46:03.391Z,21.85
2018-11-29T02:46:35.010Z,21.85
2018-11-29T02:47:06.629Z,21.84
2018-11-29T02:47:38.240Z,21.81
2018-11-29T02:48:09.845Z,21.81
2018-11-29T02:48:41.448Z,21.79
2018-11-29T02:49:13.047Z,21.78
2018-11-29T02:49:44.651Z,21.76
2018-11-29T02:50:16.250Z,21.75
2018-11-29T02:50:47.832Z,21.74
2018-11-29T02:51:19.425Z,21.73
2018-11-29T02:51:51.056Z,21.72
2018-11-29T02:52:22.649Z,21.71
2018-11-29T02:52:54.265Z,21.70
2018-11-29T02:53:25.872Z,21.69
2018-11-29T02:53:57.484Z,21.67
2018-11-29T02:54:29.086Z,21.66
2018-11-29T02:55:00.682Z,21.66
2018-11-29T02:55:32.278Z,21.64
2018-11-29T02:56:03.890Z,21.63
2018-11-29T02:56:35.496Z,21.61
2018-11-29T02:57:07.104Z,21.61
2018-11-29T02:57:38.740Z,21.60
2018-11-29T02:58:10.334Z,21.57
2018-11-29T02:58:41.926Z,21.55
2018-11-29T02:59:13.530Z,21.53
2018-11-29T02:59:45.126Z,21.51
2018-11-29T03:00:16.746Z,21.50
2018-11-29T03:00:48.360Z,21.48
2018-11-29T03:01:19.964Z,21.46
2018-11-29T03:01:51.586Z,21.45
2018-11-29T03:02:23.181Z,21.42
2018-11-29T03:02:54.789Z,21.42
2018-11-29T03:03:26.389Z,21.39
2018-11-29T03:03:57.982Z,21.38
2018-11-29T03:04:29.568Z,21.37
2018-11-29T03:05:01.176Z,21.35
2018-11-29T03:05:32.788Z,21.34
2018-11-29T03:06:04.407Z,21.33
2018-11-29T03:06:35.996Z,21.33
2018-11-29T03:07:07.597Z,21.34
2018-11-29T03:07:39.193Z,21.34
2018-11-29T03:08:10.803Z,21.36
2018-11-29T03:08:42.407Z,21.35
2018-11-29T03:09:14.002Z,21.34
2018-11-29T03:09:45.609Z,21.34
2018-11-29T03:10:17.206Z,21.33
2018-11-29T03:10:48.802Z,21.32
2018-11-29T03:11:20.407Z,21.31
2018-11-29T03:11:52.029Z,21.28
2018-11-29T03:12:23.626Z,21.28
2018-11-29T03:12:55.250Z,21.27
2018-11-29T03:13:26.850Z,21.25
2018-11-29T03:13:58.460Z,21.24
2018-11-29T03:14:30.069Z,21.22
2018-11-29T03:15:01.656Z,21.21
2018-11-29T03:15:33.259Z,21.19
2018-11-29T03:16:04.857Z,21.18
2018-11-29T03:16:36.465Z,21.19
2018-11-29T03:17:08.063Z,21.19
2018-11-29T03:17:39.679Z,21.19
2018-11-29T03:18:11.284Z,21.18
2018-11-29T03:18:42.881Z,21.18
2018-11-29T03:19:14.479Z,21.17
2018-11-29T03:19:46.085Z,21.16
2018-11-29T03:20:17.683Z,21.14
2018-11-29T03:20:49.284Z,21.13
2018-11-29T03:21:20.884Z,21.13
2018-11-29T03:21:52.491Z,21.14
2018-11-29T03:22:24.114Z,21.13
2018-11-29T03:22:55.708Z,21.14
2018-11-29T03:23:27.320Z,21.15
2018-11-29T03:23:58.919Z,21.17
2018-11-29T03:24:30.514Z,21.16
2018-11-29T03:25:02.106Z,21.17
2018-11-29T03:25:33.692Z,21.16
2018-11-29T03:26:05.291Z,21.17
2018-11-29T03:26:36.888Z,21.21
2018-11-29T03:27:08.551Z,21.25
2018-11-29T03:27:40.147Z,21.27
2018-11-29T03:28:11.746Z,21.31
2018-11-29T03:28:43.354Z,21.31
2018-11-29T03:29:14.960Z,21.28
2018-11-29T03:29:46.674Z,21.25
2018-11-29T03:30:18.273Z,21.21
2018-11-29T03:30:49.889Z,21.17
2018-11-29T03:31:21.492Z,21.17
2018-11-29T03:31:53.272Z,21.18
2018-11-29T03:32:24.913Z,21.19
2018-11-29T03:32:56.511Z,21.21
2018-11-29T03:33:28.117Z,21.20
2018-11-29T03:33:59.714Z,21.21
2018-11-29T03:34:31.306Z,21.24
2018-11-29T03:35:02.885Z,21.26
2018-11-29T03:35:34.491Z,21.28
2018-11-29T03:36:06.097Z,21.29
2018-11-29T03:36:37.698Z,21.30
2018-11-29T03:37:09.318Z,21.32
2018-11-29T03:37:40.955Z,21.33
2018-11-29T03:38:12.544Z,21.35
2018-11-29T03:38:44.141Z,21.37
2018-11-29T03:39:15.749Z,21.38
2018-11-29T03:39:47.346Z,21.39
2018-11-29T03:40:18.969Z,21.40
2018-11-29T03:40:50.579Z,21.43
2018-11-29T03:41:22.160Z,21.45
2018-11-29T03:41:53.755Z,21.46
2018-11-29T03:42:25.374Z,21.47
2018-11-29T03:42:56.984Z,21.49
2018-11-29T03:43:28.588Z,21.47
2018-11-29T03:44:00.196Z,21.51
2018-11-29T03:44:31.780Z,21.53
2018-11-29T03:45:03.418Z,21.54
2018-11-29T03:45:35.011Z,21.58
2018-11-29T03:46:06.620Z,21.58
2018-11-29T03:46:38.234Z,21.59
2018-11-29T03:47:09.848Z,21.59
2018-11-29T03:47:41.460Z,21.60
2018-11-29T03:48:13.068Z,21.62
2018-11-29T03:48:44.685Z,21.64
2018-11-29T03:49:16.288Z,21.63
2018-11-29T03:49:47.897Z,21.62
2018-11-29T03:50:19.505Z,21.62
2018-11-29T03:50:51.098Z,21.61
2018-11-29T03:51:22.707Z,21.62
2018-11-29T03:51:54.358Z,21.61
2018-11-29T03:52:26.016Z,21.60
2018-11-29T03:52:57.613Z,21.61
2018-11-29T03:53:29.206Z,21.60
2018-11-29T03:54:00.819Z,21.62
2018-11-29T03:54:32.415Z,21.65
2018-11-29T03:55:04.009Z,21.66
2018-11-29T03:55:35.621Z,21.67
2018-11-29T03:56:07.213Z,21.71
2018-11-29T03:56:38.822Z,21.72
2018-11-29T03:57:10.425Z,21.74
2018-11-29T03:57:42.068Z,21.74
2018-11-29T03:58:13.651Z,21.77
2018-11-29T03:58:45.241Z,21.78
2018-11-29T03:59:16.844Z,21.79
2018-11-29T03:59:48.447Z,21.80
2018-11-29T04:00:20.028Z,21.81
2018-11-29T04:00:51.622Z,21.81
2018-11-29T04:01:23.208Z,21.84
2018-11-29T04:01:54.821Z,21.85
2018-11-29T04:02:26.438Z,21.84
2018-11-29T04:02:58.067Z,21.85
2018-11-29T04:03:29.667Z,21.87
2018-11-29T04:04:01.270Z,21.90
2018-11-29T04:04:32.862Z,21.79
2018-11-29T04:05:04.459Z,21.93
2018-11-29T04:05:36.082Z,21.94
2018-11-29T04:06:07.680Z,21.94
2018-11-29T04:06:39.292Z,21.95
2018-11-29T04:07:10.900Z,21.95
2018-11-29T04:07:42.568Z,21.96
2018-11-29T04:08:14.173Z,21.93
2018-11-29T04:08:45.776Z,21.93
2018-11-29T04:09:17.379Z,21.94
2018-11-29T04:09:48.979Z,21.95
2018-11-29T04:10:20.574Z,21.96
2018-11-29T04:10:52.170Z,21.96
2018-11-29T04:11:23.770Z,21.93
2018-11-29T04:11:55.377Z,21.91
2018-11-29T04:12:26.978Z,21.90
2018-11-29T04:12:58.597Z,21.89
2018-11-29T04:13:30.187Z,21.86
2018-11-29T04:14:01.804Z,21.83
2018-11-29T04:14:33.405Z,21.81
2018-11-29T04:15:05.001Z,21.78
2018-11-29T04:15:36.640Z,21.75
2018-11-29T04:16:08.234Z,21.73
2018-11-29T04:16:39.830Z,21.70
2018-11-29T04:17:11.427Z,21.69
2018-11-29T04:17:43.064Z,21.68
2018-11-29T04:18:14.670Z,21.66
2018-11-29T04:18:46.262Z,21.65
2018-11-29T04:19:17.854Z,21.62
2018-11-29T04:19:49.455Z,21.60
2018-11-29T04:20:21.067Z,21.58
2018-11-29T04:20:52.661Z,21.57
2018-11-29T04:21:24.259Z,21.54
2018-11-29T04:21:55.845Z,21.52
2018-11-29T04:22:27.455Z,21.51
2018-11-29T04:22:59.092Z,21.50
2018-11-29T04:23:30.685Z,21.49
2018-11-29T04:24:02.271Z,21.46
2018-11-29T04:24:33.867Z,21.45
2018-11-29T04:25:05.462Z,21.44
2018-11-29T04:25:37.057Z,21.44
2018-11-29T04:26:08.640Z,21.43
2018-11-29T04:26:40.248Z,21.40
2018-11-29T04:27:11.847Z,21.38
2018-11-29T04:27:43.481Z,21.36
2018-11-29T04:28:15.069Z,21.32
2018-11-29T04:28:46.662Z,21.32
2018-11-29T04:29:18.272Z,21.27
2018-11-29T04:29:49.874Z,21.27
2018-11-29T04:30:21.466Z,21.27
2018-11-29T04:30:53.065Z,21.26
2018-11-29T04:31:24.671Z,21.23
2018-11-29T04:31:56.260Z,21.22
2018-11-29T04:32:27.855Z,21.21
2018-11-29T04:32:59.493Z,21.21
2018-11-29T04:33:31.108Z,21.23
2018-11-29T04:34:02.713Z,21.22
2018-11-29T04:34:34.319Z,21.22
2018-11-29T04:35:05.918Z,21.21
2018-11-29T04:35:37.524Z,21.21
2018-11-29T04:36:09.152Z,21.19
2018-11-29T04:36:40.758Z,21.18
2018-11-29T04:37:12.363Z,21.16
2018-11-29T04:37:44.047Z,21.14
2018-11-29T04:38:15.656Z,21.12
2018-11-29T04:38:47.250Z,21.10
2018-11-29T04:39:18.861Z,21.09
2018-11-29T04:39:50.458Z,21.09
2018-11-29T04:40:22.050Z,21.06
2018-11-29T04:40:53.646Z,21.05
2018-11-29T04:41:25.237Z,21.04
2018-11-29T04:41:56.824Z,21.02
2018-11-29T04:42:28.417Z,21.01
2018-11-29T04:43:00.042Z,20.99
2018-11-29T04:43:31.648Z,20.98
2018-11-29T04:44:03.237Z,20.97
2018-11-29T04:44:34.831Z,20.96
2018-11-29T04:45:06.441Z,20.95
2018-11-29T04:45:38.042Z,20.94
2018-11-29T04:46:09.634Z,20.94
2018-11-29T04:46:41.219Z,20.93
2018-11-29T04:47:12.803Z,20.92
2018-11-29T04:47:44.446Z,20.93
2018-11-29T04:48:16.976Z,20.92
2018-11-29T04:48:48.576Z,20.92
2018-11-29T04:49:20.188Z,20.93
2018-11-29T04:49:51.797Z,20.93
2018-11-29T04:50:23.390Z,20.95
2018-11-29T04:50:54.985Z,20.96
2018-11-29T04:51:26.579Z,20.95
2018-11-29T04:51:58.184Z,20.93
2018-11-29T04:52:29.778Z,20.94
2018-11-29T04:53:01.435Z,20.92
2018-11-29T04:53:33.036Z,20.95
2018-11-29T04:54:04.653Z,20.94
2018-11-29T04:54:36.260Z,20.95
2018-11-29T04:55:07.885Z,20.98
2018-11-29T04:55:39.478Z,21.02
2018-11-29T04:56:11.075Z,21.06
2018-11-29T04:56:42.674Z,21.08
2018-11-29T04:57:14.252Z,20.88
2018-11-29T04:57:45.890Z,21.12
2018-11-29T04:58:17.514Z,21.15
2018-11-29T04:58:49.110Z,21.17
2018-11-29T04:59:20.701Z,21.18
2018-11-29T04:59:52.289Z,21.21
2018-11-29T05:00:23.896Z,21.24
2018-11-29T05:00:55.478Z,21.28
2018-11-29T05:01:27.087Z,21.30
2018-11-29T05:01:58.699Z,21.33
2018-11-29T05:02:30.294Z,21.35
2018-11-29T05:03:01.916Z,21.37
2018-11-29T05:03:33.501Z,21.39
2018-11-29T05:04:05.107Z,21.40
2018-11-29T05:04:36.702Z,21.41
2018-11-29T05:05:08.312Z,21.43
2018-11-29T05:05:39.915Z,21.44
2018-11-29T05:06:11.542Z,21.46
2018-11-29T05:06:43.138Z,21.48
2018-11-29T05:07:14.750Z,21.47
2018-11-29T05:07:46.346Z,21.49
2018-11-29T05:08:17.970Z,21.51
2018-11-29T05:08:49.635Z,21.51
2018-11-29T05:09:21.231Z,21.53
2018-11-29T05:09:52.833Z,21.46
2018-11-29T05:10:24.429Z,21.57
2018-11-29T05:10:56.021Z,21.58
2018-11-29T05:11:27.624Z,21.59
2018-11-29T05:11:59.233Z,21.60
2018-11-29T05:12:30.869Z,21.61
2018-11-29T05:13:02.497Z,21.63
2018-11-29T05:13:34.099Z,21.66
2018-11-29T05:14:05.695Z,21.69
2018-11-29T05:14:37.276Z,21.70
2018-11-29T05:15:08.870Z,21.71
2018-11-29T05:15:40.481Z,21.73
2018-11-29T05:16:12.077Z,21.73
2018-11-29T05:16:43.671Z,21.74
2018-11-29T05:17:15.280Z,21.77
2018-11-29T05:17:46.874Z,21.79
2018-11-29T05:18:18.495Z,21.84
2018-11-29T05:18:50.108Z,21.84
2018-11-29T05:19:21.702Z,21.84
2018-11-29T05:19:53.312Z,21.85
2018-11-29T05:20:24.918Z,21.87
2018-11-29T05:20:56.513Z,21.88
2018-11-29T05:21:28.100Z,21.89
2018-11-29T05:21:59.708Z,21.89
2018-11-29T05:22:31.306Z,21.90
2018-11-29T05:23:02.920Z,21.91
2018-11-29T05:23:34.523Z,21.92
2018-11-29T05:24:06.129Z,21.75
2018-11-29T05:24:37.739Z,21.96
2018-11-29T05:25:09.349Z,21.95
2018-11-29T05:25:40.945Z,21.97
2018-11-29T05:26:12.552Z,21.97
2018-11-29T05:26:44.166Z,21.97
2018-11-29T05:27:15.758Z,21.97
2018-11-29T05:27:47.350Z,21.97
2018-11-29T05:28:18.991Z,21.97
2018-11-29T05:28:50.599Z,21.97
2018-11-29T05:29:22.194Z,21.96
2018-11-29T05:29:53.786Z,21.97
2018-11-29T05:30:25.404Z,21.95
2018-11-29T05:30:56.997Z,21.97
2018-11-29T05:31:28.580Z,21.96
2018-11-29T05:32:00.178Z,21.95
2018-11-29T05:32:31.791Z,21.95
2018-11-29T05:33:03.400Z,21.95
2018-11-29T05:33:35.034Z,21.95
2018-11-29T05:34:06.636Z,21.83
2018-11-29T05:34:38.234Z,21.94
2018-11-29T05:35:09.846Z,21.95
2018-11-29T05:35:41.431Z,21.94
2018-11-29T05:36:13.044Z,21.91
2018-11-29T05:36:44.632Z,21.90
2018-11-29T05:37:16.229Z,21.88
2018-11-29T05:37:47.822Z,21.87
2018-11-29T05:38:19.414Z,21.86
2018-11-29T05:38:51.048Z,21.82
2018-11-29T05:39:22.656Z,21.80
2018-11-29T05:39:54.260Z,21.80
2018-11-29T05:40:25.857Z,21.80
2018-11-29T05:40:57.451Z,21.78
2018-11-29T05:41:29.063Z,21.76
2018-11-29T05:42:00.658Z,21.76
2018-11-29T05:42:32.273Z,21.75
2018-11-29T05:43:03.876Z,21.75
2018-11-29T05:43:35.519Z,21.74
2018-11-29T05:44:07.116Z,21.72
2018-11-29T05:44:38.709Z,21.70
2018-11-29T05:45:10.315Z,21.68
2018-11-29T05:45:41.915Z,21.66
2018-11-29T05:46:13.520Z,21.64
2018-11-29T05:46:45.132Z,21.62
2018-11-29T05:47:16.735Z,21.60
2018-11-29T05:47:48.341Z,21.58
2018-11-29T05:48:19.948Z,21.55
2018-11-29T05:48:51.582Z,21.53
2018-11-29T05:49:23.188Z,21.52
2018-11-29T05:49:54.792Z,21.49
2018-11-29T05:50:26.404Z,21.48
2018-11-29T05:50:58.003Z,21.43
2018-11-29T05:51:29.598Z,21.44
2018-11-29T05:52:01.208Z,21.41
2018-11-29T05:52:32.812Z,21.40
2018-11-29T05:53:04.422Z,21.39
2018-11-29T05:53:36.018Z,21.36
2018-11-29T05:54:07.625Z,21.34
2018-11-29T05:54:39.218Z,21.32
2018-11-29T05:55:10.809Z,21.31
2018-11-29T05:55:42.396Z,21.30
2018-11-29T05:56:13.989Z,21.28
2018-11-29T05:56:45.586Z,21.31
2018-11-29T05:57:17.204Z,21.32
2018-11-29T05:57:48.816Z,21.34
2018-11-29T05:58:20.414Z,21.34
2018-11-29T05:58:52.033Z,21.33
2018-11-29T05:59:23.640Z,21.32
2018-11-29T05:59:55.237Z,21.31
2018-11-29T06:00:26.820Z,21.32
2018-11-29T06:00:58.413Z,21.31
2018-11-29T06:01:30.016Z,21.32
2018-11-29T06:02:01.624Z,21.33
2018-11-29T06:02:33.232Z,21.33
2018-11-29T06:03:04.826Z,21.33
2018-11-29T06:03:36.464Z,21.33
2018-11-29T06:04:08.076Z,21.33
2018-11-29T06:04:39.675Z,21.33
2018-11-29T06:05:11.273Z,21.32
2018-11-29T06:05:42.882Z,21.31
2018-11-29T06:06:14.489Z,21.28
2018-11-29T06:06:46.097Z,21.29
2018-11-29T06:07:17.714Z,21.29
2018-11-29T06:07:49.357Z,21.29
2018-11-29T06:08:20.947Z,21.25
2018-11-29T06:08:52.564Z,21.24
2018-11-29T06:09:24.206Z,21.21
2018-11-29T06:09:55.804Z,21.20
2018-11-29T06:10:27.403Z,21.17
2018-11-29T06:10:59.002Z,21.15
2018-11-29T06:11:30.602Z,21.13
2018-11-29T06:12:02.202Z,21.14
2018-11-29T06:12:33.812Z,21.15
2018-11-29T06:13:05.413Z,21.16
2018-11-29T06:13:37.015Z,21.16
2018-11-29T06:14:08.635Z,21.17
2018-11-29T06:14:40.230Z,21.17
2018-11-29T06:15:11.834Z,21.16
2018-11-29T06:15:43.444Z,21.17
2018-11-29T06:16:15.052Z,21.16
2018-11-29T06:16:46.650Z,21.17
2018-11-29T06:17:18.256Z,21.19
2018-11-29T06:17:49.856Z,21.17
2018-11-29T06:18:21.453Z,21.17
2018-11-29T06:18:53.259Z,21.18
2018-11-29T06:19:24.864Z,21.16
2018-11-29T06:19:56.458Z,21.15
2018-11-29T06:20:28.063Z,21.14
2018-11-29T06:20:59.659Z,21.14
2018-11-29T06:21:31.277Z,21.13
2018-11-29T06:22:02.914Z,21.16
2018-11-29T06:22:34.513Z,21.17
2018-11-29T06:23:06.124Z,21.18
2018-11-29T06:23:37.744Z,21.18
2018-11-29T06:24:13.524Z,21.18
2018-11-29T06:24:41.017Z,21.21
2018-11-29T06:25:12.614Z,21.23
2018-11-29T06:25:44.225Z,21.25
2018-11-29T06:26:15.822Z,21.26
2018-11-29T06:26:47.419Z,21.26
2018-11-29T06:27:19.033Z,21.26
2018-11-29T06:27:50.647Z,21.29
2018-11-29T06:28:22.255Z,21.30
2018-11-29T06:28:53.858Z,21.32
2018-11-29T06:29:25.475Z,21.32
2018-11-29T06:29:57.080Z,21.33
2018-11-29T06:30:28.675Z,21.34
2018-11-29T06:31:00.259Z,21.37
2018-11-29T06:31:31.898Z,21.40
2018-11-29T06:32:03.505Z,21.41
2018-11-29T06:32:35.098Z,21.43
2018-11-29T06:33:06.690Z,21.44
2018-11-29T06:33:38.280Z,21.46
2018-11-29T06:34:09.932Z,21.46
2018-11-29T06:34:41.535Z,21.49
2018-11-29T06:35:13.130Z,21.50
2018-11-29T06:35:44.743Z,21.55
2018-11-29T06:36:16.338Z,21.56
2018-11-29T06:36:47.921Z,21.57
2018-11-29T06:37:19.514Z,21.59
2018-11-29T06:37:51.114Z,21.61
2018-11-29T06:38:22.703Z,21.61
2018-11-29T06:38:54.298Z,21.62
2018-11-29T06:39:25.917Z,21.64
2018-11-29T06:39:57.520Z,21.64
2018-11-29T06:40:29.105Z,21.64
2018-11-29T06:41:00.697Z,21.63
2018-11-29T06:41:32.315Z,21.64
2018-11-29T06:42:03.929Z,21.64
2018-11-29T06:42:35.516Z,21.65
2018-11-29T06:43:07.238Z,21.67
2018-11-29T06:43:38.834Z,21.68
2018-11-29T06:44:10.440Z,21.70
2018-11-29T06:44:42.072Z,21.72
2018-11-29T06:45:13.680Z,21.74
2018-11-29T06:45:45.284Z,21.76
2018-11-29T06:46:16.897Z,21.77
2018-11-29T06:46:48.504Z,21.78